Time;durP1;ratioP1;P1;durP2;ratioP2;P2;SDS_P1;SDS_P2;PMS_P1;PMS_P2;Temp;Humidity;BMP_temperature;BMP_pressure;BME280_temperature;BME280_humidity;BME280_pressure;Samples;Min_cycle;Max_cycle;Signal;HPM_P1;HPM_P2
2021/06/18 00:00:31;;;;;;;5.17;4.20;;;17.10;99.90;17.00;97036.00;;;;5075708;28;20200;-84
2021/06/18 00:03:20;;;;;;;4.67;4.27;;;17.10;99.90;17.10;97028.00;;;;5075872;28;20203;-83
2021/06/18 00:06:09;;;;;;;3.60;3.27;;;17.20;99.90;17.30;97020.00;;;;5082909;28;20214;-83
2021/06/18 00:08:58;;;;;;;4.30;3.90;;;17.30;99.90;17.30;97013.00;;;;5094889;28;20602;-83
2021/06/18 00:11:47;;;;;;;3.97;3.67;;;17.30;99.90;17.20;97023.00;;;;5096855;28;20219;-83
2021/06/18 00:14:38;;;;;;;5.47;4.03;;;17.40;99.90;17.10;97025.00;;;;5095921;28;20207;-84
2021/06/18 00:17:27;;;;;;;4.30;3.90;;;17.40;99.90;17.30;97022.00;;;;5094639;28;20202;-84
2021/06/18 00:20:16;;;;;;;5.57;4.07;;;17.40;99.90;17.10;97019.00;;;;5095362;28;20200;-84
2021/06/18 00:23:05;;;;;;;4.97;4.47;;;17.40;99.90;16.90;97015.00;;;;5095879;28;20227;-84
2021/06/18 00:25:54;;;;;;;7.43;4.23;;;17.30;99.90;16.80;97016.00;;;;5087231;28;20228;-83
2021/06/18 00:28:43;;;;;;;4.80;4.37;;;17.20;99.90;16.90;97016.00;;;;5076287;28;20202;-83
2021/06/18 00:31:33;;;;;;;3.93;3.63;;;17.20;99.90;16.90;97023.00;;;;5079614;28;20223;-83
2021/06/18 00:34:22;;;;;;;6.47;4.50;;;17.10;99.90;16.80;97018.00;;;;5089741;28;20195;-84
2021/06/18 00:37:11;;;;;;;7.30;4.53;;;17.10;99.90;16.80;97014.00;;;;5084858;28;20191;-83
2021/06/18 00:40:00;;;;;;;4.80;4.33;;;17.10;99.90;16.70;97014.00;;;;5082239;28;20199;-83
2021/06/18 00:42:49;;;;;;;4.67;3.90;;;17.10;99.90;16.90;97018.00;;;;5095291;28;20242;-84
2021/06/18 00:45:38;;;;;;;5.00;4.50;;;17.00;99.90;17.00;97023.00;;;;5095307;28;20223;-84
2021/06/18 00:48:28;;;;;;;6.03;4.03;;;17.10;99.90;17.20;97029.00;;;;5094074;28;20215;-84
2021/06/18 00:51:18;;;;;;;4.20;3.80;;;17.20;99.90;17.20;97021.00;;;;5076649;28;20224;-84
2021/06/18 00:54:08;;;;;;;4.37;3.97;;;17.30;99.90;17.20;97013.00;;;;5076741;28;20203;-83
2021/06/18 00:56:59;;;;;;;4.80;4.10;;;17.30;99.90;17.00;97018.00;;;;5088401;28;20313;-84
2021/06/18 00:59:48;;;;;;;6.73;4.20;;;17.30;99.90;17.00;97019.00;;;;5084728;28;20203;-84
2021/06/18 01:02:37;;;;;;;4.57;4.20;;;17.20;99.90;17.10;97023.00;;;;5094908;28;20215;-84
2021/06/18 01:05:28;;;;;;;4.00;3.70;;;17.20;99.90;17.10;97019.00;;;;5096674;28;20231;-83
2021/06/18 01:08:24;;;;;;;6.93;4.20;;;17.30;99.90;16.90;97020.00;;;;5095403;28;20210;-84
2021/06/18 01:11:25;;;;;;;4.17;3.40;;;17.30;99.90;16.90;97026.00;;;;5083058;28;20223;-84
2021/06/18 01:14:25;;;;;;;5.10;4.70;;;17.20;99.90;17.00;97016.00;;;;5095564;28;20196;-84
2021/06/18 01:17:24;;;;;;;5.80;4.47;;;17.20;99.90;17.20;97022.00;;;;5095811;28;20215;-83
2021/06/18 01:20:44;;;;;;;4.80;4.37;;;17.30;99.90;17.30;97026.00;;;;5094666;28;20195;-83
2021/06/18 01:23:55;;;;;;;4.60;4.20;;;17.30;99.90;17.40;97021.00;;;;5095985;28;20673;-83
2021/06/18 01:27:15;;;;;;;3.87;3.57;;;17.40;99.90;17.30;97014.00;;;;5094232;28;20214;-84
2021/06/18 01:30:09;;;;;;;4.60;4.17;;;17.40;99.90;17.10;97017.00;;;;5082616;28;20230;-84
2021/06/18 01:33:03;;;;;;;4.20;3.63;;;17.40;99.90;17.20;97009.00;;;;5076652;28;20227;-84
2021/06/18 01:35:58;;;;;;;5.33;4.10;;;17.40;99.90;17.30;97003.00;;;;5095270;28;20264;-84
2021/06/18 01:38:48;;;;;;;6.00;4.17;;;17.40;99.90;17.40;97005.00;;;;5089954;28;20215;-84
2021/06/18 01:41:40;;;;;;;4.60;4.20;;;17.40;99.90;17.40;97003.00;;;;5087304;28;20220;-84
2021/06/18 01:44:30;;;;;;;7.27;3.97;;;17.50;99.90;17.50;96991.00;;;;5087249;28;20218;-83
2021/06/18 01:47:21;;;;;;;4.63;3.73;;;17.50;99.90;17.60;97009.00;;;;5080646;28;20192;-84
2021/06/18 01:50:14;;;;;;;4.30;3.80;;;17.50;99.90;17.30;97004.00;;;;5081066;28;20195;-84
2021/06/18 01:53:07;;;;;;;4.40;4.00;;;17.50;99.90;17.00;96999.00;;;;5084616;28;20211;-83
2021/06/18 01:55:57;;;;;;;5.67;4.30;;;17.50;99.90;17.00;96993.00;;;;5092865;28;20583;-84
2021/06/18 01:58:50;;;;;;;5.00;3.90;;;17.40;99.90;17.30;96991.00;;;;5094326;28;20188;-84
2021/06/18 02:01:44;;;;;;;3.80;3.50;;;17.40;99.90;17.30;96978.00;;;;5094031;28;20234;-83
2021/06/18 02:04:48;;;;;;;7.77;4.40;;;17.40;99.90;17.10;96982.00;;;;5092728;28;20204;-84
2021/06/18 02:07:40;;;;;;;3.87;3.57;;;17.40;99.90;16.90;96983.00;;;;5087701;28;20200;-83
2021/06/18 02:10:29;;;;;;;4.50;4.10;;;17.30;99.90;17.00;96979.00;;;;5094920;28;20203;-83
2021/06/18 02:13:19;;;;;;;5.23;4.47;;;17.30;99.90;17.10;96988.00;;;;5094583;28;20227;-84
2021/06/18 02:16:09;;;;;;;4.83;4.40;;;17.30;99.90;17.20;96982.00;;;;5083035;28;20196;-83
2021/06/18 02:18:59;;;;;;;3.80;3.50;;;17.30;99.90;17.30;96983.00;;;;5087715;28;20200;-83
2021/06/18 02:21:53;;;;;;;4.97;4.43;;;17.30;99.90;17.00;96985.00;;;;5074378;28;20238;-83
2021/06/18 02:24:43;;;;;;;5.47;4.53;;;17.30;99.90;17.00;96986.00;;;;5073169;28;20258;-84
2021/06/18 02:27:33;;;;;;;4.23;3.87;;;17.30;99.90;16.90;96980.00;;;;5072832;28;20242;-83
2021/06/18 02:30:23;;;;;;;4.87;4.37;;;17.20;99.90;17.10;96986.00;;;;5083355;28;20745;-83
2021/06/18 02:33:12;;;;;;;4.20;3.80;;;17.20;99.90;17.10;96991.00;;;;5087558;28;20219;-84
2021/06/18 02:36:02;;;;;;;5.90;4.03;;;17.20;99.90;17.00;96989.00;;;;5093347;28;20195;-83
2021/06/18 02:38:52;;;;;;;6.57;4.33;;;17.20;99.90;16.80;96987.00;;;;5093179;28;20200;-83
2021/06/18 02:41:42;;;;;;;5.23;4.73;;;17.20;99.90;16.70;96990.00;;;;5082391;28;20227;-83
2021/06/18 02:44:31;;;;;;;4.73;4.33;;;17.10;99.90;16.80;96991.00;;;;5080010;28;20207;-84
2021/06/18 02:47:27;;;;;;;4.50;4.10;;;17.00;99.90;16.90;96996.00;;;;5080721;28;20204;-83
2021/06/18 02:50:27;;;;;;;5.13;4.73;;;17.00;99.90;16.90;96988.00;;;;5082049;28;20195;-85
2021/06/18 02:53:24;;;;;;;4.50;4.10;;;17.10;99.90;16.80;96986.00;;;;5081940;28;20222;-84
2021/06/18 02:56:22;;;;;;;5.63;4.20;;;17.00;99.90;16.50;96980.00;;;;5094045;28;20213;-84
2021/06/18 02:59:18;;;;;;;5.23;4.57;;;16.90;99.90;16.60;96981.00;;;;5093823;28;20203;-83
2021/06/18 03:02:09;;;;;;;4.87;4.37;;;16.90;99.90;16.60;96986.00;;;;5087996;28;20219;-84
2021/06/18 03:05:00;;;;;;;4.57;4.13;;;16.90;99.90;16.30;96984.00;;;;5069831;28;20200;-83
2021/06/18 03:07:56;;;;;;;4.90;4.17;;;16.80;99.90;16.30;96992.00;;;;5077785;28;20569;-84
2021/06/18 03:10:51;;;;;;;4.97;4.57;;;16.70;99.90;16.40;96984.00;;;;5077307;28;20207;-84
2021/06/18 03:13:45;;;;;;;4.87;4.43;;;16.70;99.90;16.50;96986.00;;;;5074983;28;20207;-84
2021/06/18 03:16:36;;;;;;;5.37;4.43;;;16.70;99.90;16.60;96981.00;;;;5071450;28;20204;-83
2021/06/18 03:19:32;;;;;;;4.97;4.47;;;16.70;99.90;16.50;96982.00;;;;5079428;28;20196;-84
2021/06/18 03:22:23;;;;;;;5.60;4.50;;;16.70;99.90;16.30;96985.00;;;;5078545;28;20230;-83
2021/06/18 03:25:14;;;;;;;5.27;4.77;;;16.70;99.90;16.10;96985.00;;;;5090933;28;20201;-84
2021/06/18 03:28:05;;;;;;;4.97;4.57;;;16.60;99.90;16.10;96989.00;;;;5072098;28;20216;-84
2021/06/18 03:30:57;;;;;;;6.00;5.10;;;16.50;99.90;16.40;96989.00;;;;5080902;28;20195;-83
2021/06/18 03:33:47;;;;;;;5.90;5.30;;;16.50;99.90;16.50;96991.00;;;;5079520;28;20214;-83
2021/06/18 03:36:37;;;;;;;6.57;5.20;;;16.60;99.90;16.60;96997.00;;;;5089279;28;20209;-83
2021/06/18 03:39:27;;;;;;;5.47;4.63;;;16.60;99.90;16.70;96998.00;;;;5090320;28;20202;-83
2021/06/18 03:42:17;;;;;;;8.23;5.43;;;16.70;99.90;16.60;96991.00;;;;5083123;28;20230;-84
2021/06/18 03:45:09;;;;;;;5.23;4.43;;;16.80;99.90;16.50;96992.00;;;;5078550;28;20210;-84
2021/06/18 03:48:01;;;;;;;6.60;5.13;;;16.80;99.90;16.60;97003.00;;;;5084069;28;20208;-83
2021/06/18 03:50:50;;;;;;;9.80;4.50;;;16.80;99.90;16.70;97008.00;;;;5082072;28;20211;-84
2021/06/18 03:53:39;;;;;;;11.67;5.50;;;16.80;99.90;16.80;97001.00;;;;5082354;28;20616;-83
2021/06/18 03:56:30;;;;;;;5.77;5.23;;;16.90;99.90;16.80;97009.00;;;;5081475;28;20204;-83
2021/06/18 03:59:20;;;;;;;8.53;4.37;;;16.90;99.90;16.70;97010.00;;;;5070217;28;20222;-84
2021/06/18 04:02:13;;;;;;;5.17;4.67;;;16.90;99.90;16.80;97011.00;;;;5072895;28;20245;-83
2021/06/18 04:05:06;;;;;;;6.10;5.50;;;16.90;99.90;16.80;97012.00;;;;5075050;28;20210;-83
2021/06/18 04:07:57;;;;;;;5.70;4.97;;;17.00;99.90;17.00;97019.00;;;;5078634;28;20214;-83
2021/06/18 04:10:46;;;;;;;4.80;4.30;;;17.00;99.90;17.10;97016.00;;;;5076321;28;20203;-83
2021/06/18 04:13:37;;;;;;;4.67;4.27;;;17.10;99.90;17.10;97017.00;;;;5090711;28;20203;-84
2021/06/18 04:16:27;;;;;;;5.13;4.73;;;17.20;99.90;17.10;97013.00;;;;5090400;28;20250;-84
2021/06/18 04:19:16;;;;;;;5.97;4.80;;;17.20;99.90;17.10;97023.00;;;;5090589;28;20214;-83
2021/06/18 04:22:07;;;;;;;5.30;4.73;;;17.30;99.90;17.10;97011.00;;;;5089925;28;20224;-84
2021/06/18 04:24:56;;;;;;;8.23;5.00;;;17.30;99.90;17.00;97017.00;;;;5089553;28;20724;-84
2021/06/18 04:27:45;;;;;;;4.80;4.40;;;17.30;99.90;16.90;97007.00;;;;5089885;28;20626;-84
2021/06/18 04:30:34;;;;;;;4.73;4.33;;;17.20;99.90;16.90;97022.00;;;;5093793;28;20685;-84
2021/06/18 04:33:23;;;;;;;5.87;5.27;;;17.20;99.90;16.80;97013.00;;;;5078808;28;20690;-84
2021/06/18 04:36:12;;;;;;;5.73;4.83;;;17.10;99.90;16.90;97019.00;;;;5092151;28;20215;-84
2021/06/18 04:39:04;;;;;;;;;;;17.10;99.90;17.10;97020.00;;;;5086199;28;20196;-84
2021/06/18 04:41:52;;;;;;;;;;;17.20;99.90;17.40;97014.00;;;;5085688;28;19927;-84
2021/06/18 04:44:41;;;;;;;;;;;17.30;99.90;17.60;97021.00;;;;5075025;28;19924;-84
2021/06/18 04:47:30;;;;;;;;;;;17.40;99.90;17.60;97022.00;;;;5077948;28;19924;-84
2021/06/18 04:50:18;;;;;;;;;;;17.60;99.90;17.60;97017.00;;;;5091643;28;19932;-84
2021/06/18 04:53:10;;;;;;;;;;;17.60;99.90;17.60;97019.00;;;;5078221;28;19920;-84
2021/06/18 04:56:01;;;;;;;;;;;17.70;99.90;17.70;97009.00;;;;5091749;28;20398;-85
2021/06/18 04:58:50;;;;;;;;;;;17.70;99.90;17.80;97019.00;;;;5092520;28;19924;-84
2021/06/18 05:01:39;;;;;;;;;;;17.80;99.90;18.00;97013.00;;;;5086477;28;19924;-84
2021/06/18 05:04:28;;;;;;;;;;;17.90;99.90;18.20;97011.00;;;;5082033;28;20279;-85
2021/06/18 05:07:17;;;;;;;6.10;5.00;;;18.00;99.90;18.30;97003.00;;;;5072556;28;20069;-84
2021/06/18 05:10:09;;;;;;;4.90;4.50;;;18.10;99.90;18.30;97012.00;;;;5086080;28;20195;-84
2021/06/18 05:12:59;;;;;;;5.23;4.30;;;18.20;99.90;18.40;97013.00;;;;5094410;28;20223;-84
2021/06/18 05:15:49;;;;;;;5.40;4.90;;;18.30;99.90;18.40;97013.00;;;;5093731;28;21004;-84
2021/06/18 05:18:38;;;;;;;5.40;4.90;;;18.40;99.90;18.60;97005.00;;;;5085460;28;20211;-84
2021/06/18 05:21:27;;;;;;;4.80;4.30;;;18.50;99.90;18.80;97019.00;;;;5094215;28;20229;-84
2021/06/18 05:24:15;;;;;;;5.13;4.63;;;18.70;99.90;19.00;97019.00;;;;5084498;28;20199;-84
2021/06/18 05:27:05;;;;;;;6.80;4.63;;;18.80;99.90;19.20;97021.00;;;;5076442;28;20223;-85
2021/06/18 05:29:56;;;;;;;5.07;4.67;;;18.90;99.90;19.30;97023.00;;;;5077595;28;20203;-85
2021/06/18 05:32:46;;;;;;;5.87;5.27;;;19.10;99.90;19.50;97019.00;;;;5074385;28;20228;-85
2021/06/18 05:35:35;;;;;;;4.70;4.30;;;19.20;99.90;19.60;97024.00;;;;5082505;28;20671;-85
2021/06/18 05:38:24;;;;;;;4.97;4.43;;;19.40;99.90;19.60;97017.00;;;;5087901;28;20212;-85
2021/06/18 05:41:12;;;;;;;7.20;4.57;;;19.50;99.90;19.70;97023.00;;;;5085413;28;20216;-84
2021/06/18 05:44:01;;;;;;;6.77;4.67;;;19.60;99.90;20.00;97028.00;;;;5085634;28;20200;-85
2021/06/18 05:46:52;;;;;;;5.53;5.03;;;19.70;99.90;20.00;97022.00;;;;5086846;28;20574;-85
2021/06/18 05:49:41;;;;;;;5.03;4.63;;;19.90;99.90;20.20;97015.00;;;;5085523;28;20593;-84
2021/06/18 05:52:30;;;;;;;6.87;5.20;;;20.00;99.90;20.30;97017.00;;;;5092609;28;20223;-85
2021/06/18 05:55:19;;;;;;;7.23;4.67;;;20.10;99.90;20.30;97013.00;;;;5084599;28;20713;-85
2021/06/18 05:58:07;;;;;;;4.80;4.40;;;20.30;99.90;20.30;97013.00;;;;5083029;28;20188;-85
2021/06/18 06:00:56;;;;;;;4.77;4.00;;;20.30;99.90;20.60;97008.00;;;;5087603;28;20779;-85
2021/06/18 06:03:47;;;;;;;5.97;4.10;;;20.40;99.90;20.90;96999.00;;;;5092911;28;20204;-85
2021/06/18 06:06:36;;;;;;;5.33;4.50;;;20.50;99.90;21.10;97005.00;;;;5081605;28;20333;-85
2021/06/18 06:09:25;;;;;;;7.20;4.70;;;20.70;99.90;21.40;97008.00;;;;5086692;28;20207;-85
2021/06/18 06:12:14;;;;;;;6.63;4.60;;;20.90;99.90;21.60;97001.00;;;;5086219;28;20444;-85
2021/06/18 06:15:03;;;;;;;6.20;4.67;;;21.10;99.90;21.80;97009.00;;;;5080777;28;20658;-85
2021/06/18 06:17:52;;;;;;;5.03;4.63;;;21.30;99.90;22.10;97006.00;;;;5072720;28;20598;-86
2021/06/18 06:20:43;;;;;;;8.60;4.73;;;21.50;99.90;22.30;97015.00;;;;5081095;28;20218;-85
2021/06/18 06:23:32;;;;;;;4.70;4.30;;;21.80;99.90;22.50;97013.00;;;;5077469;28;20188;-85
2021/06/18 06:26:22;;;;;;;8.70;5.00;;;22.00;99.90;22.50;97021.00;;;;5075091;28;20558;-85
2021/06/18 06:29:11;;;;;;;8.37;4.40;;;22.20;99.90;22.70;97026.00;;;;5083616;28;20227;-86
2021/06/18 06:32:00;;;;;;;6.60;4.33;;;22.30;99.90;22.90;97020.00;;;;5080275;28;20230;-86
2021/06/18 06:34:49;;;;;;;4.87;4.40;;;22.40;99.90;23.00;97007.00;;;;5090307;28;20203;-86
2021/06/18 06:37:41;;;;;;;5.13;4.00;;;22.60;99.90;23.20;97021.00;;;;5083682;28;20830;-85
2021/06/18 06:40:30;;;;;;;6.83;4.87;;;22.80;99.90;23.40;97016.00;;;;5083572;28;20816;-85
2021/06/18 06:43:20;;;;;;;9.33;4.70;;;23.00;99.90;23.40;97011.00;;;;5078770;28;20199;-85
2021/06/18 06:46:09;;;;;;;;;;;23.10;99.90;23.70;97008.00;;;;5087264;28;20210;-86
2021/06/18 06:48:58;;;;;;;;;;;23.30;99.90;23.60;97012.00;;;;5087913;28;19920;-86
2021/06/18 06:51:46;;;;;;;;;;;23.40;99.90;23.80;97013.00;;;;5082466;28;19920;-86
2021/06/18 06:54:37;;;;;;;;;;;23.50;99.90;24.00;97003.00;;;;5093035;28;19927;-85
2021/06/18 06:57:25;;;;;;;;;;;23.60;99.90;24.10;97009.00;;;;5084147;28;19920;-85
2021/06/18 07:00:15;;;;;;;;;;;23.80;99.90;24.20;97000.00;;;;5085695;28;19947;-85
2021/06/18 07:03:04;;;;;;;4.30;3.90;;;23.90;99.90;24.10;97008.00;;;;5081276;28;19930;-86
2021/06/18 07:05:53;;;;;;;5.23;3.73;;;24.00;99.30;24.20;97010.00;;;;5092745;28;20579;-85
2021/06/18 07:08:42;;;;;;;6.73;4.00;;;24.10;98.40;24.50;97003.00;;;;5077111;28;20309;-86
2021/06/18 07:11:32;;;;;;;6.67;4.00;;;24.20;97.20;24.90;97008.00;;;;5085020;28;20223;-86
2021/06/18 07:14:21;;;;;;;4.00;3.50;;;24.30;97.40;25.00;97010.00;;;;5073329;28;20679;-86
2021/06/18 07:17:10;;;;;;;6.23;4.10;;;24.50;98.20;24.80;97004.00;;;;5091280;28;20199;-86
2021/06/18 07:20:01;;;;;;;7.13;4.37;;;24.60;96.70;25.20;97010.00;;;;5090249;28;20200;-86
2021/06/18 07:22:50;;;;;;;4.33;3.93;;;24.70;97.00;25.40;96996.00;;;;5083653;28;20222;-86
2021/06/18 07:25:39;;;;;;;5.87;3.57;;;24.90;97.20;25.70;97000.00;;;;5091782;28;20195;-86
2021/06/18 07:28:30;;;;;;;5.40;4.17;;;25.20;97.00;25.90;96992.00;;;;5078627;28;20219;-86
2021/06/18 07:31:19;;;;;;;6.10;4.13;;;25.40;96.10;26.00;97001.00;;;;5080422;28;20239;-86
2021/06/18 07:34:08;;;;;;;4.73;3.37;;;25.50;94.50;26.20;96993.00;;;;5084160;28;20215;-86
2021/06/18 07:36:57;;;;;;;4.33;4.00;;;25.70;94.20;26.30;96980.00;;;;5087401;28;20212;-86
2021/06/18 07:39:51;;;;;;;3.70;3.37;;;25.90;93.50;26.60;96987.00;;;;5084914;28;20203;-86
2021/06/18 07:42:49;;;;;;;8.73;3.77;;;26.10;92.90;26.80;96989.00;;;;5071538;28;20221;-86
2021/06/18 07:45:39;;;;;;;3.93;3.63;;;26.30;92.00;26.90;96991.00;;;;5078645;28;20707;-85
2021/06/18 07:48:28;;;;;;;5.23;3.43;;;26.50;90.80;26.60;96992.00;;;;5081801;28;20248;-86
2021/06/18 07:51:17;;;;;;;3.90;3.50;;;26.50;88.40;26.70;96993.00;;;;5086365;28;20218;-86
2021/06/18 07:54:07;;;;;;;4.00;3.60;;;26.60;84.80;26.80;96989.00;;;;5073731;28;20214;-86
2021/06/18 07:56:56;;;;;;;4.07;3.67;;;26.60;84.00;26.80;96988.00;;;;5071849;28;20189;-86
2021/06/18 07:59:45;;;;;;;6.20;3.13;;;26.60;82.70;27.10;96980.00;;;;5085649;28;20207;-86
2021/06/18 08:02:35;;;;;;;4.57;3.70;;;26.70;83.30;27.10;96987.00;;;;5092507;28;20227;-86
2021/06/18 08:05:24;;;;;;;3.90;3.50;;;26.80;80.20;27.10;96986.00;;;;5077939;28;20276;-86
2021/06/18 08:08:13;;;;;;;5.67;3.20;;;26.90;80.70;27.30;96984.00;;;;5075634;28;20699;-86
2021/06/18 08:11:11;;;;;;;6.30;3.00;;;27.00;78.50;27.30;96983.00;;;;5084089;28;20940;-85
2021/06/18 08:14:00;;;;;;;4.57;2.97;;;27.10;76.10;27.50;96987.00;;;;5094080;28;20593;-86
2021/06/18 08:16:49;;;;;;;6.77;3.43;;;27.20;75.70;27.60;96979.00;;;;5091457;28;20200;-86
2021/06/18 08:19:39;;;;;;;5.80;3.47;;;27.30;75.00;27.50;96982.00;;;;5083704;28;20556;-86
2021/06/18 08:22:28;;;;;;;5.33;3.07;;;27.40;73.30;27.70;96983.00;;;;5083966;28;20595;-85
2021/06/18 08:25:17;;;;;;;8.47;3.57;;;27.40;73.10;27.80;96979.00;;;;5074621;28;20200;-85
2021/06/18 08:28:06;;;;;;;14.13;3.60;;;27.50;74.00;27.90;96980.00;;;;5074038;28;20699;-86
2021/06/18 08:30:55;;;;;;;3.40;3.10;;;27.60;73.60;28.00;96984.00;;;;5075870;28;20192;-86
2021/06/18 08:33:44;;;;;;;3.67;3.33;;;27.60;72.90;27.00;96975.00;;;;5083219;28;20288;-86
2021/06/18 08:36:35;;;;;;;4.97;3.23;;;27.60;70.50;27.30;96971.00;;;;5080199;28;20197;-86
2021/06/18 08:39:24;;;;;;;6.13;3.57;;;27.40;73.40;27.90;96974.00;;;;5091790;28;20208;-86
2021/06/18 08:42:13;;;;;;;5.37;3.70;;;27.50;73.10;27.80;96976.00;;;;5072794;28;20214;-86
2021/06/18 08:45:02;;;;;;;5.17;3.50;;;27.60;73.30;27.80;96960.00;;;;5087327;28;20624;-85
2021/06/18 08:47:51;;;;;;;4.70;3.70;;;27.60;68.70;27.80;96950.00;;;;5085355;28;20199;-85
2021/06/18 08:50:40;;;;;;;4.00;3.67;;;27.70;69.00;27.90;96964.00;;;;5083981;28;20207;-85
2021/06/18 08:53:35;;;;;;;4.33;3.50;;;27.70;69.20;28.40;96966.00;;;;5082367;28;20223;-85
2021/06/18 08:56:24;;;;;;;4.90;4.03;;;27.90;70.00;28.60;96960.00;;;;5086868;28;20202;-86
2021/06/18 08:59:13;;;;;;;5.00;3.43;;;28.00;67.80;28.90;96963.00;;;;5088606;28;20165;-85
2021/06/18 09:02:02;;;;;;;5.63;4.00;;;28.20;66.30;28.90;96960.00;;;;5087066;28;20893;-86
2021/06/18 09:05:07;;;;;;;4.13;3.73;;;28.40;66.20;28.60;96961.00;;;;5083881;28;20191;-85
2021/06/18 09:07:59;;;;;;;3.77;3.40;;;28.50;65.50;28.60;96963.00;;;;5082216;28;20209;-86
2021/06/18 09:10:51;;;;;;;3.77;3.47;;;28.50;65.80;28.90;96960.00;;;;5082330;28;20171;-85
2021/06/18 09:13:40;;;;;;;3.57;3.27;;;28.60;65.00;29.10;96959.00;;;;5086039;28;20279;-86
2021/06/18 09:16:28;;;;;;;6.07;3.43;;;28.70;64.80;28.70;96954.00;;;;5086978;28;20273;-85
2021/06/18 09:19:27;;;;;;;4.27;3.80;;;28.70;61.90;28.50;96947.00;;;;5087120;28;20206;-86
2021/06/18 09:22:19;;;;;;;5.10;3.70;;;28.80;63.70;28.70;96949.00;;;;5079965;28;20228;-85
2021/06/18 09:25:12;;;;;;;4.37;3.93;;;28.80;65.30;28.70;96947.00;;;;5075622;28;20197;-86
2021/06/18 09:28:05;;;;;;;4.27;3.87;;;28.80;63.00;29.10;96942.00;;;;5079214;28;20192;-86
2021/06/18 09:31:07;;;;;;;4.43;3.17;;;28.70;63.30;29.20;96944.00;;;;5083155;28;20211;-86
2021/06/18 09:33:56;;;;;;;;;;;28.90;65.80;29.40;96952.00;;;;5079036;28;19924;-86
2021/06/18 09:36:44;;;;;;;5.43;3.90;;;29.10;63.90;29.60;96957.00;;;;5089268;28;19931;-85
2021/06/18 09:39:33;;;;;;;4.87;3.30;;;29.20;61.60;28.60;96942.00;;;;5091682;28;21222;-85
2021/06/18 09:42:23;;;;;;;4.53;4.03;;;29.20;60.90;28.90;96945.00;;;;5093807;28;20226;-86
2021/06/18 09:45:17;;;;;;;5.73;3.77;;;29.00;61.80;29.90;96944.00;;;;5092332;28;20549;-86
2021/06/18 09:48:12;;;;;;;4.80;4.13;;;29.10;62.90;30.20;96931.00;;;;5073324;28;20196;-85
2021/06/18 09:51:03;;;;;;;4.87;3.80;;;29.40;62.70;30.70;96937.00;;;;5088156;28;20202;-86
2021/06/18 09:53:52;;;;;;;4.57;4.07;;;29.70;63.60;30.50;96939.00;;;;5082427;28;20208;-86
2021/06/18 09:56:41;;;;;;;3.70;3.40;;;30.00;62.80;30.10;96932.00;;;;5081637;28;20579;-86
2021/06/18 09:59:30;;;;;;;4.13;3.70;;;30.10;60.10;31.00;96938.00;;;;5091380;28;20205;-86
2021/06/18 10:02:22;;;;;;;4.10;3.73;;;30.30;62.50;31.50;96941.00;;;;5091724;28;20229;-85
2021/06/18 10:05:13;;;;;;;3.97;3.63;;;30.60;62.30;31.60;96930.00;;;;5091482;28;20206;-84
2021/06/18 10:08:04;;;;;;;4.28;3.88;;;30.80;60.20;31.90;96933.00;;;;5082015;28;20207;-86
2021/06/18 10:10:53;;;;;;;5.28;3.78;;;31.10;59.30;31.80;96931.00;;;;5078220;28;20264;-85
2021/06/18 10:13:42;;;;;;;4.82;3.63;;;31.30;58.40;32.10;96927.00;;;;5077944;28;20228;-87
2021/06/18 10:16:31;;;;;;;6.18;4.05;;;31.30;58.00;32.30;96928.00;;;;5078084;28;20700;-86
2021/06/18 10:19:22;;;;;;;9.68;4.07;;;31.60;58.30;31.70;96937.00;;;;5071441;28;20294;-85
2021/06/18 10:22:15;;;;;;;6.35;3.80;;;31.60;56.20;29.70;96928.00;;;;5078553;28;20225;-86
2021/06/18 10:25:09;;;;;;;4.65;4.18;;;31.30;55.10;28.90;96913.00;;;;5089605;28;20192;-86
2021/06/18 10:28:06;;;;;;;4.07;3.63;;;30.60;55.30;29.20;96912.00;;;;5077799;28;20205;-86
2021/06/18 10:31:04;;;;;;;5.17;3.43;;;29.90;57.20;29.60;96915.00;;;;5076575;28;20646;-85
2021/06/18 10:34:06;;;;;;;7.00;4.50;;;29.50;57.90;31.00;96922.00;;;;5073526;28;20205;-86
2021/06/18 10:37:21;;;;;;;4.27;3.50;;;29.80;59.00;31.40;96914.00;;;;5080075;28;20230;-86
2021/06/18 10:40:12;;;;;;;5.67;3.80;;;30.30;58.70;31.50;96916.00;;;;5081638;28;20201;-85
2021/06/18 10:43:11;;;;;;;4.00;3.70;;;30.70;58.40;32.50;96918.00;;;;5091251;28;20726;-85
2021/06/18 10:46:22;;;;;;;4.60;3.70;;;31.10;60.10;32.80;96924.00;;;;5072903;28;20201;-85
2021/06/18 10:49:12;;;;;;;5.25;3.45;;;31.60;58.00;32.20;96910.00;;;;5072246;28;20766;-86
2021/06/18 10:52:16;;;;;;;4.13;3.70;;;31.80;56.10;32.50;96912.00;;;;5083609;28;20582;-85
2021/06/18 10:55:07;;;;;;;5.60;4.20;;;31.90;56.70;31.50;96907.00;;;;5080723;28;20201;-85
2021/06/18 10:57:58;;;;;;;5.10;3.35;;;31.70;55.10;32.60;96907.00;;;;5090681;28;20203;-85
2021/06/18 11:00:47;;;;;;;6.15;4.53;;;31.90;56.20;33.20;96897.00;;;;5091266;28;20677;-85
2021/06/18 11:03:58;;;;;;;5.22;4.25;;;32.10;56.10;32.00;96890.00;;;;5087146;28;20206;-85
2021/06/18 11:06:49;;;;;;;3.40;3.10;;;32.20;54.20;31.90;96885.00;;;;5075218;28;20590;-85
2021/06/18 11:09:47;;;;;;;4.50;4.10;;;32.20;54.30;30.50;96873.00;;;;5080888;28;20230;-84
2021/06/18 11:12:43;;;;;;;5.05;4.55;;;31.50;55.00;29.80;96865.00;;;;5078784;28;20221;-85
2021/06/18 11:15:46;;;;;;;4.15;3.75;;;31.00;54.80;32.00;96866.00;;;;5094128;28;20264;-85
2021/06/18 11:18:41;;;;;;;6.75;4.43;;;31.00;56.50;33.40;96876.00;;;;5092826;28;20580;-85
2021/06/18 11:21:32;;;;;;;4.60;4.28;;;31.50;57.20;32.80;96880.00;;;;5088741;28;20227;-87
2021/06/18 11:24:39;;;;;;;5.00;3.67;;;31.90;55.90;31.80;96869.00;;;;5079437;28;20698;-86
2021/06/18 11:27:31;;;;;;;6.85;3.47;;;32.10;54.60;32.50;96862.00;;;;5081045;28;20265;-86
2021/06/18 11:30:29;;;;;;;5.78;4.78;;;32.20;55.70;33.90;96855.00;;;;5084119;28;20302;-83
2021/06/18 11:33:46;;;;;;;5.55;3.55;;;32.50;55.80;33.80;96853.00;;;;5086614;28;20211;-85
2021/06/18 11:36:45;;;;;;;4.03;3.63;;;32.90;53.90;33.90;96852.00;;;;5089296;28;20556;-86
2021/06/18 11:39:34;;;;;;;5.45;3.72;;;33.10;54.10;33.20;96847.00;;;;5088990;28;20202;-86
2021/06/18 11:42:23;;;;;;;4.15;3.85;;;33.10;53.20;33.50;96845.00;;;;5071836;28;20790;-86
2021/06/18 11:45:14;;;;;;;4.93;3.88;;;33.20;52.50;34.00;96842.00;;;;5078968;28;20584;-85
2021/06/18 11:48:05;;;;;;;5.32;3.92;;;33.40;53.30;33.10;96831.00;;;;5089989;28;20309;-87
2021/06/18 11:50:55;;;;;;;4.07;3.67;;;33.30;52.50;31.20;96873.00;;;;5081828;28;20268;-86
2021/06/18 11:53:44;;;;;;;6.22;4.22;;;32.90;52.50;32.10;96895.00;;;;5081684;28;20215;-86
2021/06/18 11:56:36;;;;;;;4.53;4.15;;;32.60;54.10;32.80;96839.00;;;;5081398;28;20199;-85
2021/06/18 11:59:26;;;;;;;3.80;3.50;;;32.60;54.20;32.80;96888.00;;;;5086203;28;20193;-87
2021/06/18 12:02:19;;;;;;;5.20;4.47;;;32.50;54.50;33.60;96826.00;;;;5073714;28;20573;-86
2021/06/18 12:05:13;;;;;;;6.20;4.63;;;32.80;53.90;31.60;96814.00;;;;5079384;28;20575;-86
2021/06/18 12:08:14;;;;;;;4.45;4.05;;;32.60;53.30;33.40;96860.00;;;;5085759;28;20205;-86
2021/06/18 12:11:15;;;;;;;4.18;3.80;;;32.60;53.90;34.40;96821.00;;;;5077501;28;20299;-86
2021/06/18 12:14:05;;;;;;;6.90;4.03;;;32.90;54.90;34.30;96815.00;;;;5069410;28;20213;-84
2021/06/18 12:16:55;;;;;;;6.80;3.85;;;33.40;53.80;32.10;96874.00;;;;5077436;28;20199;-86
2021/06/18 12:19:46;;;;;;;4.07;3.78;;;33.20;53.40;32.50;96872.00;;;;5068926;28;20194;-87
2021/06/18 12:22:37;;;;;;;5.45;3.47;;;32.80;53.70;34.40;96802.00;;;;5078941;28;20231;-86
2021/06/18 12:25:27;;;;;;;6.20;4.22;;;33.00;54.40;35.40;96808.00;;;;5071044;28;21218;-86
2021/06/18 12:28:17;;;;;;;11.20;4.75;;;33.50;55.00;36.00;96819.00;;;;5079682;28;20207;-87
2021/06/18 12:31:06;;;;;;;4.53;3.92;;;34.20;54.60;36.00;96814.00;;;;5077249;28;20234;-87
2021/06/18 12:33:55;;;;;;;4.90;3.78;;;34.70;53.10;36.10;96812.00;;;;5078181;28;20212;-87
2021/06/18 12:36:46;;;;;;;4.28;3.33;;;35.00;53.00;36.20;96850.00;;;;5079326;28;20239;-85
2021/06/18 12:39:56;;;;;;;6.45;4.18;;;35.20;50.30;35.90;96799.00;;;;5079947;28;20293;-85
2021/06/18 12:42:48;;;;;;;4.93;4.53;;;35.10;52.20;36.40;96819.00;;;;5074884;28;20258;-84
2021/06/18 12:45:45;;;;;;;4.45;3.72;;;35.30;52.00;36.10;96790.00;;;;5078638;28;20210;-87